This is the latest recevied weather packets stored in our database for station/object AD0YN. If no packets are shown the sender has not sent any weather packets the latest 10 day(s).
| Time | Temp. | Humidity | Pressure | Rain* | Wind** | Luminosity | Snow |
|---|---|---|---|---|---|---|---|
| 1777738759 | 15° C | 33% | 1021 hPa | 0 mm | - | 806 W/m² | - |
| 1777738455 | 15° C | 34% | 1020.9 hPa | 0 mm | - | 787 W/m² | - |
| 1777738153 | 14.44° C | 36% | 1020.9 hPa | 0 mm | - | 786 W/m² | - |
| 1777737851 | 14.44° C | 36% | 1020.9 hPa | 0 mm | - | 779 W/m² | - |
| 1777737550 | 14.44° C | 32% | 1021 hPa | 0 mm | - | 791 W/m² | - |
| 1777737248 | 13.89° C | 38% | 1020.9 hPa | 0 mm | - | 756 W/m² | - |
| 1777736942 | 13.89° C | 35% | 1020.9 hPa | 0 mm | - | 770 W/m² | - |
| 1777736025 | 13.33° C | 43% | 1021 hPa | 0 mm | - | 705 W/m² | - |
| 1777735722 | 13.89° C | 44% | 1021 hPa | 0 mm | - | 678 W/m² | - |
| 1777735420 | 13.33° C | 46% | 1020.9 hPa | 0 mm | - | 673 W/m² | - |
| 1777735118 | 13.33° C | 43% | 1021.1 hPa | 0 mm | - | 659 W/m² | - |
| 1777734814 | 13.89° C | 45% | 1021.2 hPa | 0 mm | - | 642 W/m² | - |
| 1777734512 | 13.33° C | 51% | 1021.3 hPa | 0 mm | - | 630 W/m² | - |
| 1777734208 | 13.33° C | 49% | 1021 hPa | 0 mm | - | 615 W/m² | - |
| 1777733904 | 13.33° C | 52% | 1020.9 hPa | 0 mm | - | 599 W/m² | - |
| 1777733601 | 13.33° C | 53% | 1021 hPa | 0 mm | - | 584 W/m² | - |
| 1777733297 | 12.78° C | 54% | 1021 hPa | 0 mm | - | 570 W/m² | - |
| 1777732995 | 12.78° C | 55% | 1021.2 hPa | 0 mm | - | 553 W/m² | - |
| 1777732690 | 12.22° C | 58% | 1021.2 hPa | 0 mm | - | 537 W/m² | - |
| 1777732387 | 12.78° C | 54% | 1021.2 hPa | 0 mm | - | 523 W/m² | - |
| 1777732085 | 12.22° C | 60% | 1021 hPa | 0 mm | - | 504 W/m² | - |
| 1777731782 | 11.67° C | 59% | 1021.2 hPa | 0 mm | - | 487 W/m² | - |
| 1777731479 | 11.67° C | 57% | 1021 hPa | 0 mm | - | 470 W/m² | - |
| 1777731177 | 11.11° C | 65% | 1021 hPa | 0 mm | - | 451 W/m² | - |
| 1777730874 | 10.56° C | 63% | 1021.1 hPa | 0 mm | - | 436 W/m² | - |
* Rain latest hour (hover to see other rain measurements)
** Current wind speed in m/s (hover to see current wind gust speed)